Aktualne dane pomiarowe

Uwaga, wersja testowa! Automatyczne pobieranie danych za pomocą narzędzi lub skryptów to umożliwiających jest zabronione.

Dane meteo z obszaru Polski uzyskane na podstawie depesz SYNOP pobieranych co godzinę z NWS. Najedź myszką na symbol przedstawiony w tabeli, aby uzyskać informacje co do jego znaczenia. Prosimy pamiętać, że to testowa wersja strony, która jeszcze nie jest ukończona. Stworzono również jest krótki FAQ dotyczący korzystania z tej podstrony Anomalie temperatury w chwili obecnej odniesione są do okresu referencyjnego 1951-2016. Okres ten będzie później zmieniony na 1981-2010. Kliknij ikonę aby pobrać plik CSV. Kliknij ikonę aby wygenerować mapę synoptyczną dla danego terminu.

Wybierz Datę:    

        

Kielce-Suków (12570)

Dane terminowe dla wybranej stacji. Kliknij datę, aby otrzymać dane z tego terminu dla wszystkich stacji.

TemperaturaZachmurzenieWiatrCiśnienieOpadyPogoda
 Data t td wb tx tn tg rh  Nt Nl Cl Cm Ch ws wd g1 g2 wx mslp ppp ch 24h 12h t ww ww w1 w2  
2019-06-25 23:00:00 20.5 18.4 19.0--- 8822.0wx-2wx--21025.3 994.6 0.3---------
2019-06-25 22:00:00 21.0 18.4 19.1--- 8523.0wx-1wx--11025.5 994.9 1.0---------
2019-06-25 21:00:00 21.6 18.4 19.3--- 8225.0wx-wx1wx--11025.0 994.5 0.7---------
2019-06-25 20:00:00 22.6 18.2 19.5--- 7635.0wx-wx1wx--11024.7 994.3 0.5---------
2019-06-25 19:00:00 25.6 17.5 20.2--- 6140.0wx-wx1wx--11024.0 993.9 0.1---------
2019-06-25 18:00:00 27.0 17.8 20.9 30.8 23.1- 5745.0wx-wx2wx---1023.8 993.8 -0.3---------
2019-06-25 17:00:00 29.1 17.0 21.2--- 4840.0wxwxwxwx4wx---1023.5 993.8 -0.8---------
2019-06-25 16:00:00 30.1 16.9 21.5--- 4535.0wxwxwxwx4wx--41023.4 993.8 -1.3---------
2019-06-25 15:00:00 30.3 16.7 21.5--- 4430.0wxwxwxwx5wx--51023.7 994.1 -1.2---------
2019-06-25 14:00:00 30.5 16.9 21.7--- 4430.0wxwxwxwx3wx---1024.2 994.6 -0.9---------
2019-06-25 13:00:00 29.3 17.8 21.7--- 5035.0wxwxwxwx3wx--31024.9 995.1 -0.7---------
2019-06-25 12:00:00 28.4 17.0 20.9--- 5025.0wxwxwxwx3wx--31025.2 995.3 -0.5- 0.06------
2019-06-25 11:00:00 28.6 17.8 21.5--- 5235.0wxwxwxwx3wx--31025.3 995.5 -0.4---------
2019-06-25 10:00:00 28.2 17.7 21.3--- 5335.0wxwxwxwx4wx--41025.7 995.8 0.2---------
2019-06-25 09:00:00 26.5 17.3 20.4--- 5730.0wxwxwxwx3wx---1025.9 995.8 0.3---------
2019-06-25 08:00:00 25.6 16.4 19.6--- 5728.0wxwxwxwx4wx--41026.1 995.9 0.4---------
2019-06-25 07:00:00 24.7 16.1 19.1--- 5935.0wx-wx4wx--41025.8 995.6 0.3---------
2019-06-25 06:00:00 23.1 15.9 18.3 24.2 14.7 13 6430.0wx-wx4wx--41025.9 995.5 0.1- 0.012----- 12.6
2019-06-25 05:00:00 21.1 15.6 17.4--- 7140.0wx-wx2wx--21026.1 995.5 0.3---------
2019-06-25 04:00:00 18.3 15.0 16.0--- 8130.0wx-wxwx1wx--11026.2 995.3 0.2---------
2019-06-25 03:00:00 15.4 14.8 14.9--- 9613.0wx-wx2wx--21026.6 995.4 0.2---------
2019-06-25 02:00:00 15.3 14.5 14.7--- 9512.0wx-wx2wx--21026.4 995.2 -0.2---------
2019-06-25 01:00:00 15.0 14.4 14.5--- 9611.0wx-wx1wx--11026.4 995.1 -0.2---------
2019-06-25 00:00:00 15.4 14.3 14.6--- 9310.0wx-0---01026.4 995.2 0.1- 0.06------
2019-06-24 23:00:00 15.8 14.7 15.0--- 9310.0wx-1wx---1026.6 995.4 0.8---------
2019-06-24 22:00:00 16.4 14.9 15.3--- 9110.0wx-wx1wx--11026.4 995.3 1.1---------
2019-06-24 21:00:00 17.3 15.1 15.7--- 8720.0wx-wx1wx--11026.1 995.1 1.4---------
2019-06-24 20:00:00 18.9 15.4 16.5--- 8040.0wx-wx1wx---1025.4 994.6 1.1---------
2019-06-24 19:00:00 21.8 15.2 17.5--- 6650.0wxwxwxwx1wx--11024.7 994.2 0.6---------
2019-06-24 18:00:00 24.2 14.3 17.9 25.6 21.3- 5440.0wxwxwxwx1wx-911023.9 993.7 0.1- 0.012------
2019-06-24 17:00:00 24.9 14.1 18.1--- 5135.0wxwxwxwx2wx--21023.7 993.5 -0.3---------
2019-06-24 16:00:00 24.9 14.7 18.4--- 5345.0wxwxwxwxwx3wx--31023.8 993.6 -0.5---------
2019-06-24 15:00:00 25.2 14.3 18.3--- 5140.0wxwxwxwx4wx9941023.7 993.6 -0.5---------
2019-06-24 14:00:00 24.4 14.2 17.9--- 5345.0wxwxwxwx3wx---1024.0 993.8 -0.2---------
2019-06-24 13:00:00 24.3 14.1 17.8--- 5340.0wxwxwxwxwx4wx---1024.3 994.1 0.4---------
2019-06-24 12:00:00 24.3 13.8 17.7--- 5240.0wxwxwxwx3wx-931024.3 994.1 0.6- 0.06------
2019-06-24 11:00:00 24.6 13.8 17.8--- 5145.0wxwxwxwx4wx--41024.2 994.0 0.8---------
2019-06-24 10:00:00 23.9 13.1 17.2--- 5140.0wxwxwxwx4wx--41024.0 993.7 0.6---------
2019-06-24 09:00:00 23.6 12.6 16.8--- 5045.0wxwxwxwx4wx-941023.8 993.5 0.4---------
2019-06-24 08:00:00 23.2 14.5 17.6--- 5840.0wxwxwxwx4wx---1023.5 993.2 0.3---------
2019-06-24 07:00:00 22.7 15.5 18.0--- 6435.0wxwxwxwx3wx--31023.5 993.1 0.5---------
2019-06-24 06:00:00 21.4 15.7 17.6 22.1 14.4 13 7040.0wxwxwxwxwx2wx--21023.6 993.1 0.9- 0.012----- 13.4
2019-06-24 05:00:00 18.9 14.4 15.9--- 7540.0wx-wxwx1wx--11023.7 992.9 1.2---------
2019-06-24 04:00:00 16.1 13.4 14.2--- 8440.0wx-wx1wx--11023.7 992.6 0.8---------
2019-06-24 03:00:00 14.6 11.9 12.8--- 8445.0wxwxwxwx0---01023.4 992.2 0.6---------
2019-06-24 02:00:00 14.9 11.9 12.9--- 8250.0wxwxwxwx1wx--11022.9 991.7 0.6---------
2019-06-24 01:00:00 15.2 11.6 12.8--- 7950.0wx-1wx--11022.9 991.8 0.9---------
2019-06-24 00:00:00 15.8 11.8 13.2--- 7750.0wx-wx1wx--11022.7 991.6 0.9- 0.06------
9.0 ms

 

Print Friendly, PDF & Email